createdAt,value
2023-05-18T00:00:54.441Z,9.13
2023-05-18T00:03:59.393Z,9.13
2023-05-18T00:07:06.826Z,9.10
2023-05-18T00:10:11.671Z,9.08
2023-05-18T00:13:14.816Z,9.03
2023-05-18T00:16:17.868Z,8.91
2023-05-18T00:19:24.131Z,8.96
2023-05-18T00:22:27.537Z,8.92
2023-05-18T00:25:30.785Z,8.89
2023-05-18T00:28:33.986Z,8.91
2023-05-18T00:31:39.268Z,8.88
2023-05-18T00:34:44.789Z,8.70
2023-05-18T00:37:48.206Z,8.80
2023-05-18T00:40:51.994Z,8.64
2023-05-18T00:43:57.931Z,8.75
2023-05-18T00:47:02.144Z,8.56
2023-05-18T00:50:08.209Z,8.57
2023-05-18T00:53:11.749Z,8.55
2023-05-18T00:56:16.317Z,8.56
2023-05-18T00:59:19.422Z,8.59
2023-05-18T01:02:23.909Z,8.49
2023-05-18T01:05:28.319Z,8.45
2023-05-18T01:08:32.160Z,8.54
2023-05-18T01:11:49.997Z,8.38
2023-05-18T01:15:07.345Z,8.42
2023-05-18T01:18:16.419Z,8.41
2023-05-18T01:21:37.282Z,8.51
2023-05-18T01:24:45.513Z,8.44
2023-05-18T01:27:52.128Z,8.29
2023-05-18T01:30:57.841Z,8.31
2023-05-18T01:34:01.212Z,8.39
2023-05-18T01:37:04.352Z,8.49
2023-05-18T01:40:10.266Z,8.49
2023-05-18T01:43:19.985Z,8.48
2023-05-18T01:46:34.099Z,8.42
2023-05-18T01:49:41.483Z,8.47
2023-05-18T01:52:48.062Z,8.54
2023-05-18T01:55:53.830Z,8.53
2023-05-18T01:58:59.640Z,8.44
2023-05-18T02:02:04.260Z,8.48
2023-05-18T02:05:12.314Z,8.54
2023-05-18T02:08:16.266Z,8.52
2023-05-18T02:11:19.927Z,8.45
2023-05-18T02:14:24.224Z,8.34
2023-05-18T02:17:27.364Z,8.32
2023-05-18T02:20:33.454Z,8.38
2023-05-18T02:23:36.798Z,8.25
2023-05-18T02:26:41.649Z,8.35
2023-05-18T02:29:46.045Z,8.29
2023-05-18T02:32:49.366Z,8.24
2023-05-18T02:35:53.361Z,8.22
2023-05-18T02:38:57.286Z,8.21
2023-05-18T02:42:00.657Z,8.10
2023-05-18T02:45:07.447Z,7.96
2023-05-18T02:48:11.076Z,7.82
2023-05-18T02:51:14.661Z,7.92
2023-05-18T02:54:17.770Z,7.75
2023-05-18T02:57:21.751Z,7.72
2023-05-18T03:00:37.134Z,7.63
2023-05-18T03:03:42.122Z,7.69
2023-05-18T03:06:47.428Z,7.79
2023-05-18T03:09:51.234Z,7.72
2023-05-18T03:12:54.531Z,7.72
2023-05-18T03:16:00.146Z,7.73
2023-05-18T03:19:04.049Z,7.52
2023-05-18T03:22:11.913Z,7.65
2023-05-18T03:25:16.428Z,7.60
2023-05-18T03:28:19.499Z,7.58
2023-05-18T03:31:24.691Z,7.60
2023-05-18T03:34:29.124Z,7.62
2023-05-18T03:37:32.682Z,7.53
2023-05-18T03:40:35.705Z,7.58
2023-05-18T03:43:39.006Z,7.67
2023-05-18T03:46:45.170Z,7.68
2023-05-18T03:49:48.735Z,7.66
2023-05-18T03:52:52.998Z,7.70
2023-05-18T03:55:56.887Z,7.64
2023-05-18T03:59:00.182Z,7.59
2023-05-18T04:02:05.253Z,7.66
2023-05-18T04:05:09.845Z,7.69
2023-05-18T04:08:14.498Z,7.74
2023-05-18T04:11:17.811Z,7.68
2023-05-18T04:14:21.244Z,7.71
2023-05-18T04:17:26.124Z,7.80
2023-05-18T04:20:29.853Z,7.81
2023-05-18T04:23:33.473Z,7.77
2023-05-18T04:26:38.510Z,7.74
2023-05-18T04:29:43.944Z,7.77
2023-05-18T04:32:49.151Z,7.85
2023-05-18T04:35:55.140Z,7.92
2023-05-18T04:39:03.499Z,8.02
2023-05-18T04:42:07.649Z,8.08
2023-05-18T04:45:16.390Z,8.10
2023-05-18T04:48:21.566Z,8.11
2023-05-18T04:51:25.829Z,8.29
2023-05-18T04:54:31.860Z,8.28
2023-05-18T04:57:35.111Z,8.24
2023-05-18T05:00:38.570Z,8.44
2023-05-18T05:03:43.489Z,8.32
2023-05-18T05:06:47.384Z,8.32
2023-05-18T05:09:50.493Z,8.35
2023-05-18T05:12:54.336Z,8.46
2023-05-18T05:15:57.355Z,8.52
2023-05-18T05:19:03.425Z,8.54
2023-05-18T05:22:06.759Z,8.65
2023-05-18T05:25:10.542Z,8.56
2023-05-18T05:28:14.564Z,8.70
2023-05-18T05:31:18.564Z,8.69
2023-05-18T05:34:23.763Z,8.83
2023-05-18T05:37:26.896Z,9.13
2023-05-18T05:40:30.009Z,9.24
2023-05-18T05:43:33.630Z,9.23
2023-05-18T05:46:37.647Z,9.43
2023-05-18T05:49:43.308Z,9.66
2023-05-18T05:52:46.439Z,9.92
2023-05-18T05:55:49.486Z,10.08
2023-05-18T05:58:54.296Z,10.06
2023-05-18T06:01:57.386Z,10.15
2023-05-18T06:05:05.102Z,10.20
2023-05-18T06:08:15.093Z,10.18
2023-05-18T06:11:27.031Z,10.24
2023-05-18T06:14:34.075Z,10.39
2023-05-18T06:17:38.731Z,10.58
2023-05-18T06:20:47.108Z,10.63
2023-05-18T06:23:52.350Z,10.70
2023-05-18T06:27:20.227Z,11.04
2023-05-18T06:30:34.475Z,11.25
2023-05-18T06:33:51.910Z,11.37
2023-05-18T06:36:56.840Z,11.57
2023-05-18T06:40:15.125Z,11.75
2023-05-18T06:43:21.421Z,11.92
2023-05-18T06:46:41.113Z,11.73
2023-05-18T06:49:53.505Z,12.32
2023-05-18T06:52:58.768Z,12.56
2023-05-18T06:56:02.044Z,12.56
2023-05-18T06:59:06.041Z,12.53
2023-05-18T07:02:09.716Z,12.58
2023-05-18T07:05:12.689Z,12.86
2023-05-18T07:08:17.107Z,13.06
2023-05-18T07:11:20.090Z,12.79
2023-05-18T07:14:23.892Z,12.99
2023-05-18T07:17:26.931Z,13.46
2023-05-18T07:20:30.069Z,13.31
2023-05-18T07:23:34.316Z,13.66
2023-05-18T07:26:37.348Z,13.85
2023-05-18T07:29:42.968Z,13.74
2023-05-18T07:32:47.396Z,13.93
2023-05-18T07:35:53.237Z,14.03
2023-05-18T07:39:00.261Z,14.43
2023-05-18T07:42:06.625Z,14.16
2023-05-18T07:45:13.303Z,13.65
2023-05-18T07:48:16.347Z,14.02
2023-05-18T07:51:19.366Z,13.85
2023-05-18T07:54:27.617Z,14.02
2023-05-18T07:57:32.538Z,14.21
2023-05-18T08:00:38.253Z,14.08
2023-05-18T08:03:44.594Z,14.28
2023-05-18T08:06:54.821Z,14.30
2023-05-18T08:09:59.648Z,13.90
2023-05-18T08:13:03.485Z,13.90
2023-05-18T08:16:12.228Z,13.56
2023-05-18T08:19:19.411Z,13.13
2023-05-18T08:22:22.895Z,13.58
2023-05-18T08:25:27.504Z,13.78
2023-05-18T08:28:31.153Z,13.68
2023-05-18T08:31:34.431Z,13.67
2023-05-18T08:34:39.588Z,13.51
2023-05-18T08:37:42.764Z,14.27
2023-05-18T08:40:59.979Z,14.58
2023-05-18T08:44:09.471Z,14.22
2023-05-18T08:47:16.386Z,14.19
2023-05-18T08:50:28.149Z,14.16
2023-05-18T08:53:36.178Z,14.07
2023-05-18T08:56:45.746Z,14.20
2023-05-18T08:59:55.377Z,15.27
2023-05-18T09:02:59.159Z,15.75
2023-05-18T09:06:04.086Z,15.42
2023-05-18T09:09:09.839Z,14.75
2023-05-18T09:12:16.067Z,14.47
2023-05-18T09:15:19.497Z,13.98
2023-05-18T09:18:28.824Z,13.71
2023-05-18T09:21:36.409Z,14.08
2023-05-18T09:24:47.446Z,14.44
2023-05-18T09:27:54.689Z,14.29
2023-05-18T09:30:58.316Z,14.62
2023-05-18T09:34:01.783Z,14.14
2023-05-18T09:37:05.848Z,13.38
2023-05-18T09:40:13.478Z,13.87
2023-05-18T09:43:19.111Z,13.81
2023-05-18T09:46:22.455Z,14.16
2023-05-18T09:49:28.962Z,14.48
2023-05-18T09:52:44.722Z,14.50
2023-05-18T09:55:50.475Z,14.71
2023-05-18T09:58:55.483Z,15.81
2023-05-18T10:02:02.029Z,15.32
2023-05-18T10:05:08.085Z,14.91
2023-05-18T10:08:15.164Z,14.86
2023-05-18T10:11:19.766Z,15.24
2023-05-18T10:14:44.551Z,15.44
2023-05-18T10:17:53.648Z,15.32
2023-05-18T10:21:05.755Z,15.19
2023-05-18T10:24:14.921Z,15.04
2023-05-18T10:27:28.654Z,16.19
2023-05-18T10:30:37.086Z,16.86
2023-05-18T10:33:41.179Z,17.02
2023-05-18T10:36:51.200Z,15.93
2023-05-18T10:40:01.472Z,15.36
2023-05-18T10:43:17.416Z,15.36
2023-05-18T10:46:27.396Z,15.57
2023-05-18T10:49:38.126Z,15.44
2023-05-18T10:52:45.978Z,15.45
2023-05-18T10:55:53.088Z,15.60
2023-05-18T10:59:02.383Z,16.68
2023-05-18T11:02:09.449Z,17.31
2023-05-18T11:05:15.516Z,17.83
2023-05-18T11:08:27.870Z,17.72
2023-05-18T11:11:31.645Z,17.67
2023-05-18T11:14:34.726Z,17.86
2023-05-18T11:17:41.033Z,17.62
2023-05-18T11:20:47.201Z,17.53
2023-05-18T11:24:25.951Z,17.07
2023-05-18T11:27:32.456Z,15.86
2023-05-18T11:30:59.910Z,16.29
2023-05-18T11:34:39.115Z,16.44
2023-05-18T11:37:50.115Z,15.99
2023-05-18T11:40:53.167Z,15.82
2023-05-18T11:44:17.150Z,16.24
2023-05-18T11:47:20.721Z,16.49
2023-05-18T11:50:25.302Z,17.07
2023-05-18T11:53:31.233Z,17.80
2023-05-18T11:56:35.127Z,18.39
2023-05-18T11:59:43.385Z,17.87
2023-05-18T12:02:48.781Z,17.65
2023-05-18T12:05:53.689Z,18.66
2023-05-18T12:08:57.211Z,18.61
2023-05-18T12:12:00.407Z,18.83
2023-05-18T12:15:08.546Z,18.61
2023-05-18T12:18:12.576Z,17.76
2023-05-18T12:21:23.455Z,17.31
2023-05-18T12:24:26.555Z,16.90
2023-05-18T12:27:30.161Z,17.60
2023-05-18T12:30:36.333Z,17.61
2023-05-18T12:33:39.785Z,17.82
2023-05-18T12:36:53.916Z,18.31
2023-05-18T12:39:57.061Z,18.79
2023-05-18T12:43:03.341Z,19.25
2023-05-18T12:46:06.896Z,18.51
2023-05-18T12:49:10.889Z,17.13
2023-05-18T12:52:17.498Z,17.31
2023-05-18T12:55:24.405Z,17.36
2023-05-18T12:58:27.452Z,17.90
2023-05-18T13:01:31.891Z,18.47
2023-05-18T13:08:07.015Z,18.88
2023-05-18T13:11:14.828Z,19.07
2023-05-18T13:14:23.648Z,19.21
2023-05-18T13:17:26.967Z,18.57
2023-05-18T13:20:37.769Z,18.49
2023-05-18T13:23:44.888Z,18.50
2023-05-18T13:26:48.382Z,19.14
2023-05-18T13:29:52.630Z,19.58
2023-05-18T13:32:55.970Z,18.97
2023-05-18T13:36:04.508Z,19.86
2023-05-18T13:39:09.873Z,19.47
2023-05-18T13:42:14.622Z,19.91
2023-05-18T13:45:22.605Z,19.30
2023-05-18T13:48:27.830Z,20.05
2023-05-18T13:51:31.434Z,20.54
2023-05-18T13:54:36.180Z,20.38
2023-05-18T13:57:45.462Z,20.62
2023-05-18T14:00:49.241Z,20.97
2023-05-18T14:03:52.443Z,20.29
2023-05-18T14:06:55.971Z,20.34
2023-05-18T14:10:02.211Z,20.79
2023-05-18T14:13:09.318Z,21.00
2023-05-18T14:16:15.754Z,20.59
2023-05-18T14:19:21.090Z,20.50
2023-05-18T14:22:27.680Z,19.90
2023-05-18T14:25:32.227Z,20.52
2023-05-18T14:28:35.425Z,20.08
2023-05-18T14:31:40.375Z,19.09
2023-05-18T14:34:43.604Z,19.38
2023-05-18T14:37:47.263Z,19.09
2023-05-18T14:40:54.551Z,18.90
2023-05-18T14:43:58.124Z,18.84
2023-05-18T14:47:01.952Z,18.81
2023-05-18T14:50:09.036Z,19.25
2023-05-18T14:53:12.243Z,19.81
2023-05-18T14:56:16.905Z,19.56
2023-05-18T14:59:23.577Z,19.34
2023-05-18T15:02:28.984Z,18.98
2023-05-18T15:05:32.117Z,19.28
2023-05-18T15:08:35.874Z,19.25
2023-05-18T15:11:40.323Z,18.74
2023-05-18T15:14:43.524Z,18.70
2023-05-18T15:17:48.156Z,18.92
2023-05-18T15:20:51.523Z,18.86
2023-05-18T15:23:54.805Z,18.62
2023-05-18T15:26:59.295Z,18.36
2023-05-18T15:30:03.325Z,18.31
2023-05-18T15:33:07.298Z,18.46
2023-05-18T15:36:10.892Z,18.77
2023-05-18T15:39:14.126Z,18.44
2023-05-18T15:42:19.996Z,18.47
2023-05-18T15:45:28.062Z,18.43
2023-05-18T15:48:31.618Z,18.38
2023-05-18T15:51:34.903Z,18.10
2023-05-18T15:54:38.299Z,18.24
2023-05-18T15:57:42.800Z,18.60
2023-05-18T16:00:48.135Z,18.50
2023-05-18T16:03:51.244Z,18.34
2023-05-18T16:06:55.200Z,18.17
2023-05-18T16:09:58.673Z,18.00
2023-05-18T16:13:06.460Z,18.08
2023-05-18T16:16:10.510Z,18.06
2023-05-18T16:19:14.038Z,17.94
2023-05-18T16:22:17.734Z,18.02
2023-05-18T16:25:20.873Z,17.87
2023-05-18T16:28:25.419Z,17.77
2023-05-18T16:31:28.669Z,17.95
2023-05-18T16:34:31.761Z,18.09
2023-05-18T16:37:36.462Z,17.76
2023-05-18T16:40:39.740Z,17.67
2023-05-18T16:43:44.540Z,17.81
2023-05-18T16:46:47.764Z,17.56
2023-05-18T16:49:51.090Z,17.44
2023-05-18T16:52:54.510Z,17.29
2023-05-18T16:55:57.611Z,17.23
2023-05-18T16:59:03.152Z,17.13
2023-05-18T17:02:10.137Z,16.89
2023-05-18T17:05:15.397Z,16.95
2023-05-18T17:08:18.549Z,17.03
2023-05-18T17:11:23.452Z,17.15
2023-05-18T17:14:27.774Z,17.12
2023-05-18T17:17:30.917Z,17.11
2023-05-18T17:20:34.368Z,16.92
2023-05-18T17:23:39.644Z,16.84
2023-05-18T17:26:42.836Z,16.94
2023-05-18T17:29:49.455Z,16.95
2023-05-18T17:32:55.939Z,16.78
2023-05-18T17:35:59.176Z,16.75
2023-05-18T17:39:21.274Z,16.74
2023-05-18T17:42:36.092Z,16.82
2023-05-18T17:45:41.432Z,16.83
2023-05-18T17:48:46.163Z,16.75
2023-05-18T17:51:49.614Z,16.74
2023-05-18T17:54:57.123Z,16.75
2023-05-18T17:58:07.976Z,16.84
2023-05-18T18:01:12.551Z,16.72
2023-05-18T18:04:16.635Z,16.76
2023-05-18T18:07:20.968Z,16.53
2023-05-18T18:10:24.860Z,16.50
2023-05-18T18:13:27.972Z,16.46
2023-05-18T18:16:35.248Z,16.46
2023-05-18T18:19:49.611Z,16.54
2023-05-18T18:23:19.487Z,15.74
2023-05-18T18:26:27.783Z,15.77
2023-05-18T18:29:31.505Z,15.83
2023-05-18T18:32:42.984Z,15.83
2023-05-18T18:35:49.597Z,15.85
2023-05-18T18:38:53.257Z,15.88
2023-05-18T18:41:56.597Z,15.65
2023-05-18T18:44:59.982Z,15.64
2023-05-18T18:48:04.992Z,15.45
2023-05-18T18:51:08.222Z,15.35
2023-05-18T18:54:11.495Z,15.49
2023-05-18T18:57:14.772Z,15.36
2023-05-18T19:00:20.611Z,15.48
2023-05-18T19:03:36.974Z,15.30
2023-05-18T19:06:44.721Z,15.23
2023-05-18T19:09:59.834Z,15.14
2023-05-18T19:13:13.436Z,14.96
2023-05-18T19:16:27.524Z,14.91
2023-05-18T19:19:43.778Z,14.78
2023-05-18T19:23:07.745Z,14.68
2023-05-18T19:26:27.489Z,14.59
2023-05-18T19:29:37.968Z,14.55
2023-05-18T19:32:43.535Z,14.39
2023-05-18T19:35:49.524Z,14.49
2023-05-18T19:38:59.577Z,14.55
2023-05-18T19:42:03.530Z,14.51
2023-05-18T19:45:07.657Z,14.42
2023-05-18T19:48:13.991Z,14.31
2023-05-18T19:51:29.985Z,14.15
2023-05-18T19:54:51.008Z,14.13
2023-05-18T19:58:03.198Z,14.03
2023-05-18T20:01:10.012Z,13.52
2023-05-18T20:04:13.735Z,13.77
2023-05-18T20:07:20.396Z,13.82
2023-05-18T20:10:23.738Z,13.73
2023-05-18T20:13:31.222Z,13.62
2023-05-18T20:16:39.283Z,13.53
2023-05-18T20:19:50.491Z,13.46
2023-05-18T20:22:55.016Z,13.39
2023-05-18T20:25:58.136Z,13.26
2023-05-18T20:29:01.327Z,13.19
2023-05-18T20:32:08.129Z,13.13
2023-05-18T20:35:12.733Z,13.10
2023-05-18T20:38:19.450Z,13.03
2023-05-18T20:41:23.324Z,13.00
2023-05-18T20:44:28.060Z,12.86
2023-05-18T20:47:32.010Z,12.87
2023-05-18T20:50:35.135Z,12.83
2023-05-18T20:53:39.677Z,12.64
2023-05-18T20:56:42.867Z,12.62
2023-05-18T20:59:46.927Z,12.51
2023-05-18T21:02:50.632Z,12.50
2023-05-18T21:05:53.783Z,12.41
2023-05-18T21:09:02.175Z,12.46
2023-05-18T21:12:09.464Z,12.38
2023-05-18T21:15:16.057Z,12.33
2023-05-18T21:18:19.268Z,12.23
2023-05-18T21:21:22.521Z,12.16
2023-05-18T21:24:27.075Z,12.06
2023-05-18T21:27:30.210Z,11.97
2023-05-18T21:30:33.581Z,11.89
2023-05-18T21:33:39.363Z,11.99
2023-05-18T21:36:43.338Z,11.98
2023-05-18T21:39:47.834Z,11.91
2023-05-18T21:42:51.113Z,11.79
2023-05-18T21:45:57.639Z,11.66
2023-05-18T21:49:03.038Z,11.69
2023-05-18T21:52:06.521Z,11.76
2023-05-18T21:55:14.625Z,11.63
2023-05-18T21:58:18.539Z,11.64
2023-05-18T22:01:23.489Z,11.54
2023-05-18T22:04:26.861Z,11.58
2023-05-18T22:07:30.055Z,11.47
2023-05-18T22:10:36.890Z,11.42
2023-05-18T22:13:40.143Z,11.33
2023-05-18T22:16:43.387Z,11.25
2023-05-18T22:19:50.660Z,11.29
2023-05-18T22:22:54.107Z,11.22
2023-05-18T22:25:58.583Z,11.21
2023-05-18T22:29:01.911Z,11.16
2023-05-18T22:32:06.212Z,11.16
2023-05-18T22:35:13.151Z,11.09
2023-05-18T22:38:16.763Z,11.02
2023-05-18T22:41:21.960Z,11.03
2023-05-18T22:44:25.359Z,10.95
2023-05-18T22:47:29.629Z,10.94
2023-05-18T22:50:33.042Z,10.97
2023-05-18T22:53:39.510Z,11.02
2023-05-18T22:56:47.544Z,10.87
2023-05-18T22:59:50.631Z,10.77
2023-05-18T23:02:57.028Z,10.70
2023-05-18T23:06:02.998Z,10.69
2023-05-18T23:09:06.266Z,10.60
2023-05-18T23:12:11.724Z,10.62
2023-05-18T23:15:15.433Z,10.45
2023-05-18T23:18:26.632Z,10.49
2023-05-18T23:21:31.034Z,10.47
2023-05-18T23:24:34.779Z,10.49
2023-05-18T23:27:39.460Z,10.53
2023-05-18T23:30:42.529Z,10.37
2023-05-18T23:33:47.324Z,10.37
2023-05-18T23:36:57.395Z,10.25
2023-05-18T23:40:03.239Z,10.26
2023-05-18T23:43:12.681Z,10.15
2023-05-18T23:46:17.019Z,10.18
2023-05-18T23:49:21.181Z,10.14
2023-05-18T23:52:27.925Z,10.05
2023-05-18T23:55:33.571Z,10.14
2023-05-18T23:58:38.533Z,9.99
